sensor_id;sensor_type;location;lat;lon;timestamp;P1;durP1;ratioP1;P2;durP2;ratioP2
74344;SDS011;62776;50.518;6.732;2023-04-05T00:02:42;3.65;;;3.33;;
74344;SDS011;62776;50.518;6.732;2023-04-05T00:05:34;4.68;;;4.28;;
74344;SDS011;62776;50.518;6.732;2023-04-05T00:08:21;4.32;;;3.92;;
74344;SDS011;62776;50.518;6.732;2023-04-05T00:11:12;4.90;;;4.40;;
74344;SDS011;62776;50.518;6.732;2023-04-05T00:13:58;4.68;;;4.30;;
74344;SDS011;62776;50.518;6.732;2023-04-05T00:16:45;5.40;;;4.22;;
74344;SDS011;62776;50.518;6.732;2023-04-05T00:19:32;4.50;;;3.75;;
74344;SDS011;62776;50.518;6.732;2023-04-05T00:22:20;5.68;;;5.18;;
74344;SDS011;62776;50.518;6.732;2023-04-05T00:25:12;5.75;;;4.95;;
74344;SDS011;62776;50.518;6.732;2023-04-05T00:27:59;9.65;;;4.25;;
74344;SDS011;62776;50.518;6.732;2023-04-05T00:30:46;5.93;;;5.05;;
74344;SDS011;62776;50.518;6.732;2023-04-05T00:33:32;5.38;;;4.80;;
74344;SDS011;62776;50.518;6.732;2023-04-05T00:36:19;5.65;;;4.93;;
74344;SDS011;62776;50.518;6.732;2023-04-05T00:39:11;5.47;;;4.97;;
74344;SDS011;62776;50.518;6.732;2023-04-05T00:41:58;6.03;;;4.80;;
74344;SDS011;62776;50.518;6.732;2023-04-05T00:44:50;5.80;;;5.20;;
74344;SDS011;62776;50.518;6.732;2023-04-05T00:47:41;4.47;;;4.07;;
74344;SDS011;62776;50.518;6.732;2023-04-05T00:50:28;5.13;;;4.63;;
74344;SDS011;62776;50.518;6.732;2023-04-05T00:53:15;4.60;;;4.18;;
74344;SDS011;62776;50.518;6.732;2023-04-05T00:56:08;4.95;;;4.47;;
74344;SDS011;62776;50.518;6.732;2023-04-05T00:58:57;6.95;;;4.35;;
74344;SDS011;62776;50.518;6.732;2023-04-05T01:01:45;5.72;;;4.50;;
74344;SDS011;62776;50.518;6.732;2023-04-05T01:04:40;6.25;;;5.65;;
74344;SDS011;62776;50.518;6.732;2023-04-05T01:07:42;4.80;;;3.65;;
74344;SDS011;62776;50.518;6.732;2023-04-05T01:10:38;5.68;;;4.97;;
74344;SDS011;62776;50.518;6.732;2023-04-05T01:13:31;6.93;;;4.90;;
74344;SDS011;62776;50.518;6.732;2023-04-05T01:16:18;5.32;;;4.93;;
74344;SDS011;62776;50.518;6.732;2023-04-05T01:19:04;5.32;;;4.80;;
74344;SDS011;62776;50.518;6.732;2023-04-05T01:21:59;5.38;;;4.88;;
74344;SDS011;62776;50.518;6.732;2023-04-05T01:28:43;5.95;;;4.45;;
74344;SDS011;62776;50.518;6.732;2023-04-05T01:31:59;7.40;;;4.85;;
74344;SDS011;62776;50.518;6.732;2023-04-05T01:35:00;5.13;;;4.60;;
74344;SDS011;62776;50.518;6.732;2023-04-05T01:41:00;6.63;;;5.70;;
74344;SDS011;62776;50.518;6.732;2023-04-05T01:43:47;5.03;;;4.53;;
74344;SDS011;62776;50.518;6.732;2023-04-05T01:46:34;5.30;;;4.80;;
74344;SDS011;62776;50.518;6.732;2023-04-05T01:49:22;4.93;;;4.43;;
74344;SDS011;62776;50.518;6.732;2023-04-05T01:52:09;6.13;;;5.20;;
74344;SDS011;62776;50.518;6.732;2023-04-05T01:54:55;6.13;;;5.53;;
74344;SDS011;62776;50.518;6.732;2023-04-05T01:57:44;5.68;;;5.18;;
74344;SDS011;62776;50.518;6.732;2023-04-05T02:00:31;5.43;;;4.93;;
74344;SDS011;62776;50.518;6.732;2023-04-05T02:03:24;5.18;;;4.78;;
74344;SDS011;62776;50.518;6.732;2023-04-05T02:06:13;6.68;;;5.38;;
74344;SDS011;62776;50.518;6.732;2023-04-05T02:09:00;5.82;;;4.90;;
74344;SDS011;62776;50.518;6.732;2023-04-05T02:11:49;5.75;;;5.15;;
74344;SDS011;62776;50.518;6.732;2023-04-05T02:14:41;5.03;;;4.63;;
74344;SDS011;62776;50.518;6.732;2023-04-05T02:17:28;5.53;;;4.93;;
74344;SDS011;62776;50.518;6.732;2023-04-05T02:20:18;5.13;;;4.63;;
74344;SDS011;62776;50.518;6.732;2023-04-05T02:23:04;5.55;;;5.05;;
74344;SDS011;62776;50.518;6.732;2023-04-05T02:25:51;5.13;;;4.63;;
74344;SDS011;62776;50.518;6.732;2023-04-05T02:28:38;5.85;;;5.35;;
74344;SDS011;62776;50.518;6.732;2023-04-05T02:31:26;5.55;;;4.75;;
74344;SDS011;62776;50.518;6.732;2023-04-05T02:34:17;4.97;;;4.47;;
74344;SDS011;62776;50.518;6.732;2023-04-05T02:37:03;5.65;;;4.97;;
74344;SDS011;62776;50.518;6.732;2023-04-05T02:39:55;5.13;;;4.65;;
74344;SDS011;62776;50.518;6.732;2023-04-05T02:42:41;4.38;;;4.00;;
74344;SDS011;62776;50.518;6.732;2023-04-05T02:45:32;4.95;;;4.22;;
74344;SDS011;62776;50.518;6.732;2023-04-05T02:48:19;5.18;;;4.65;;
74344;SDS011;62776;50.518;6.732;2023-04-05T02:51:05;5.15;;;4.65;;
74344;SDS011;62776;50.518;6.732;2023-04-05T02:53:51;5.28;;;4.32;;
74344;SDS011;62776;50.518;6.732;2023-04-05T02:56:39;5.18;;;4.60;;
74344;SDS011;62776;50.518;6.732;2023-04-05T02:59:25;5.30;;;4.80;;
74344;SDS011;62776;50.518;6.732;2023-04-05T03:02:12;5.32;;;4.82;;
74344;SDS011;62776;50.518;6.732;2023-04-05T03:05:00;5.35;;;4.82;;
74344;SDS011;62776;50.518;6.732;2023-04-05T03:07:47;5.80;;;4.85;;
74344;SDS011;62776;50.518;6.732;2023-04-05T03:10:36;5.55;;;4.95;;
74344;SDS011;62776;50.518;6.732;2023-04-05T03:13:24;4.95;;;4.45;;
74344;SDS011;62776;50.518;6.732;2023-04-05T03:16:17;5.03;;;4.53;;
74344;SDS011;62776;50.518;6.732;2023-04-05T03:19:05;4.70;;;4.30;;
74344;SDS011;62776;50.518;6.732;2023-04-05T03:22:00;5.38;;;4.88;;
74344;SDS011;62776;50.518;6.732;2023-04-05T03:24:48;6.75;;;6.05;;
74344;SDS011;62776;50.518;6.732;2023-04-05T03:27:36;7.15;;;5.82;;
74344;SDS011;62776;50.518;6.732;2023-04-05T03:30:33;5.80;;;5.30;;
74344;SDS011;62776;50.518;6.732;2023-04-05T03:33:26;5.03;;;4.63;;
74344;SDS011;62776;50.518;6.732;2023-04-05T03:36:12;6.78;;;4.82;;
74344;SDS011;62776;50.518;6.732;2023-04-05T03:39:01;5.40;;;4.90;;
74344;SDS011;62776;50.518;6.732;2023-04-05T03:41:49;7.05;;;4.63;;
74344;SDS011;62776;50.518;6.732;2023-04-05T03:44:41;5.60;;;4.30;;
74344;SDS011;62776;50.518;6.732;2023-04-05T03:47:28;6.60;;;4.68;;
74344;SDS011;62776;50.518;6.732;2023-04-05T03:50:14;5.22;;;4.72;;
74344;SDS011;62776;50.518;6.732;2023-04-05T03:53:03;5.78;;;4.90;;
74344;SDS011;62776;50.518;6.732;2023-04-05T03:55:57;5.20;;;4.70;;
74344;SDS011;62776;50.518;6.732;2023-04-05T03:58:44;5.07;;;4.68;;
74344;SDS011;62776;50.518;6.732;2023-04-05T04:01:31;6.45;;;4.95;;
74344;SDS011;62776;50.518;6.732;2023-04-05T04:04:19;5.00;;;4.53;;
74344;SDS011;62776;50.518;6.732;2023-04-05T04:07:07;4.93;;;4.32;;
74344;SDS011;62776;50.518;6.732;2023-04-05T04:09:54;6.38;;;4.60;;
74344;SDS011;62776;50.518;6.732;2023-04-05T04:12:43;5.65;;;4.50;;
74344;SDS011;62776;50.518;6.732;2023-04-05T04:15:30;6.82;;;4.88;;
74344;SDS011;62776;50.518;6.732;2023-04-05T04:18:17;5.75;;;5.15;;
74344;SDS011;62776;50.518;6.732;2023-04-05T04:21:03;5.72;;;5.22;;
74344;SDS011;62776;50.518;6.732;2023-04-05T04:23:51;5.60;;;5.00;;
74344;SDS011;62776;50.518;6.732;2023-04-05T04:26:38;5.07;;;4.57;;
74344;SDS011;62776;50.518;6.732;2023-04-05T04:29:35;8.15;;;5.88;;
74344;SDS011;62776;50.518;6.732;2023-04-05T04:32:25;7.68;;;5.65;;
74344;SDS011;62776;50.518;6.732;2023-04-05T04:35:33;7.13;;;5.15;;
74344;SDS011;62776;50.518;6.732;2023-04-05T04:38:22;6.43;;;5.53;;
74344;SDS011;62776;50.518;6.732;2023-04-05T04:41:15;6.43;;;5.38;;
74344;SDS011;62776;50.518;6.732;2023-04-05T04:44:05;12.25;;;6.38;;
74344;SDS011;62776;50.518;6.732;2023-04-05T04:46:53;7.47;;;6.13;;
74344;SDS011;62776;50.518;6.732;2023-04-05T04:49:40;7.25;;;6.15;;
74344;SDS011;62776;50.518;6.732;2023-04-05T04:52:28;8.57;;;6.65;;
74344;SDS011;62776;50.518;6.732;2023-04-05T04:55:14;8.00;;;6.47;;
74344;SDS011;62776;50.518;6.732;2023-04-05T04:58:13;5.88;;;5.30;;
74344;SDS011;62776;50.518;6.732;2023-04-05T05:01:05;6.45;;;5.88;;
74344;SDS011;62776;50.518;6.732;2023-04-05T05:03:57;7.03;;;6.40;;
74344;SDS011;62776;50.518;6.732;2023-04-05T05:06:43;9.88;;;7.70;;
74344;SDS011;62776;50.518;6.732;2023-04-05T05:09:29;9.40;;;8.50;;
74344;SDS011;62776;50.518;6.732;2023-04-05T05:12:15;9.65;;;8.75;;
74344;SDS011;62776;50.518;6.732;2023-04-05T05:15:04;8.75;;;7.60;;
74344;SDS011;62776;50.518;6.732;2023-04-05T05:17:50;7.75;;;6.65;;
74344;SDS011;62776;50.518;6.732;2023-04-05T05:20:37;7.47;;;6.75;;
74344;SDS011;62776;50.518;6.732;2023-04-05T05:23:25;11.60;;;6.60;;
74344;SDS011;62776;50.518;6.732;2023-04-05T05:26:13;6.25;;;5.63;;
74344;SDS011;62776;50.518;6.732;2023-04-05T05:29:09;15.57;;;11.35;;
74344;SDS011;62776;50.518;6.732;2023-04-05T05:31:57;10.43;;;7.20;;
74344;SDS011;62776;50.518;6.732;2023-04-05T05:34:45;10.75;;;7.55;;
74344;SDS011;62776;50.518;6.732;2023-04-05T05:37:33;8.82;;;7.40;;
74344;SDS011;62776;50.518;6.732;2023-04-05T05:40:22;11.52;;;7.00;;
74344;SDS011;62776;50.518;6.732;2023-04-05T05:43:18;8.55;;;6.85;;
74344;SDS011;62776;50.518;6.732;2023-04-05T05:46:05;10.20;;;6.75;;
74344;SDS011;62776;50.518;6.732;2023-04-05T05:48:51;8.15;;;6.65;;
74344;SDS011;62776;50.518;6.732;2023-04-05T05:51:44;7.30;;;6.43;;
74344;SDS011;62776;50.518;6.732;2023-04-05T05:54:33;6.95;;;6.30;;
74344;SDS011;62776;50.518;6.732;2023-04-05T05:57:19;8.80;;;6.78;;
74344;SDS011;62776;50.518;6.732;2023-04-05T06:00:06;6.75;;;6.15;;
74344;SDS011;62776;50.518;6.732;2023-04-05T06:02:58;11.98;;;6.78;;
74344;SDS011;62776;50.518;6.732;2023-04-05T06:05:49;9.60;;;6.60;;
74344;SDS011;62776;50.518;6.732;2023-04-05T06:08:36;9.88;;;6.25;;
74344;SDS011;62776;50.518;6.732;2023-04-05T06:11:24;7.78;;;6.38;;
74344;SDS011;62776;50.518;6.732;2023-04-05T06:14:11;7.57;;;6.55;;
74344;SDS011;62776;50.518;6.732;2023-04-05T06:16:58;6.30;;;5.55;;
74344;SDS011;62776;50.518;6.732;2023-04-05T06:19:51;7.03;;;6.28;;
74344;SDS011;62776;50.518;6.732;2023-04-05T06:22:40;7.57;;;6.88;;
74344;SDS011;62776;50.518;6.732;2023-04-05T06:25:34;7.60;;;6.50;;
74344;SDS011;62776;50.518;6.732;2023-04-05T06:28:22;6.78;;;6.07;;
74344;SDS011;62776;50.518;6.732;2023-04-05T06:31:08;7.93;;;7.18;;
74344;SDS011;62776;50.518;6.732;2023-04-05T06:33:55;7.25;;;6.45;;
74344;SDS011;62776;50.518;6.732;2023-04-05T06:36:43;6.47;;;5.85;;
74344;SDS011;62776;50.518;6.732;2023-04-05T06:39:30;5.68;;;5.15;;
74344;SDS011;62776;50.518;6.732;2023-04-05T06:42:17;6.47;;;5.25;;
74344;SDS011;62776;50.518;6.732;2023-04-05T06:45:05;6.18;;;5.57;;
74344;SDS011;62776;50.518;6.732;2023-04-05T06:47:51;5.15;;;4.63;;
74344;SDS011;62776;50.518;6.732;2023-04-05T06:50:39;6.03;;;5.47;;
74344;SDS011;62776;50.518;6.732;2023-04-05T06:53:25;5.68;;;4.93;;
74344;SDS011;62776;50.518;6.732;2023-04-05T06:56:14;5.68;;;5.18;;
74344;SDS011;62776;50.518;6.732;2023-04-05T06:59:00;7.43;;;5.00;;
74344;SDS011;62776;50.518;6.732;2023-04-05T07:01:49;5.95;;;5.22;;
74344;SDS011;62776;50.518;6.732;2023-04-05T07:04:35;6.05;;;5.45;;
74344;SDS011;62776;50.518;6.732;2023-04-05T07:07:23;6.15;;;4.78;;
74344;SDS011;62776;50.518;6.732;2023-04-05T07:10:09;5.20;;;4.75;;
74344;SDS011;62776;50.518;6.732;2023-04-05T07:12:56;5.22;;;4.72;;
74344;SDS011;62776;50.518;6.732;2023-04-05T07:15:43;5.15;;;4.65;;
74344;SDS011;62776;50.518;6.732;2023-04-05T07:18:30;5.93;;;4.20;;
74344;SDS011;62776;50.518;6.732;2023-04-05T07:21:16;5.35;;;4.50;;
74344;SDS011;62776;50.518;6.732;2023-04-05T07:24:10;5.40;;;4.78;;
74344;SDS011;62776;50.518;6.732;2023-04-05T07:26:56;5.63;;;4.53;;
74344;SDS011;62776;50.518;6.732;2023-04-05T07:29:48;4.93;;;4.43;;
74344;SDS011;62776;50.518;6.732;2023-04-05T07:35:27;5.38;;;4.63;;
74344;SDS011;62776;50.518;6.732;2023-04-05T07:38:14;4.65;;;4.20;;
74344;SDS011;62776;50.518;6.732;2023-04-05T07:41:02;4.85;;;4.13;;
74344;SDS011;62776;50.518;6.732;2023-04-05T07:43:48;7.20;;;4.60;;
74344;SDS011;62776;50.518;6.732;2023-04-05T07:46:36;5.18;;;3.65;;
74344;SDS011;62776;50.518;6.732;2023-04-05T07:49:25;6.28;;;5.65;;
74344;SDS011;62776;50.518;6.732;2023-04-05T07:52:12;6.10;;;4.03;;
74344;SDS011;62776;50.518;6.732;2023-04-05T07:54:59;5.45;;;3.60;;
74344;SDS011;62776;50.518;6.732;2023-04-05T07:57:47;5.25;;;4.60;;
74344;SDS011;62776;50.518;6.732;2023-04-05T08:00:33;5.15;;;3.97;;
74344;SDS011;62776;50.518;6.732;2023-04-05T08:03:22;4.40;;;3.67;;
74344;SDS011;62776;50.518;6.732;2023-04-05T08:06:11;4.90;;;3.72;;
74344;SDS011;62776;50.518;6.732;2023-04-05T08:09:01;3.85;;;3.55;;
74344;SDS011;62776;50.518;6.732;2023-04-05T08:11:56;4.57;;;3.50;;
74344;SDS011;62776;50.518;6.732;2023-04-05T08:14:43;4.05;;;3.33;;
74344;SDS011;62776;50.518;6.732;2023-04-05T08:17:29;5.15;;;3.38;;
74344;SDS011;62776;50.518;6.732;2023-04-05T08:20:17;4.30;;;3.42;;
74344;SDS011;62776;50.518;6.732;2023-04-05T08:23:05;5.45;;;3.65;;
74344;SDS011;62776;50.518;6.732;2023-04-05T08:25:53;4.40;;;3.20;;
74344;SDS011;62776;50.518;6.732;2023-04-05T08:28:40;3.58;;;3.25;;
74344;SDS011;62776;50.518;6.732;2023-04-05T08:31:28;4.00;;;3.42;;
74344;SDS011;62776;50.518;6.732;2023-04-05T08:34:21;5.32;;;3.67;;
74344;SDS011;62776;50.518;6.732;2023-04-05T08:37:09;3.78;;;3.10;;
74344;SDS011;62776;50.518;6.732;2023-04-05T08:39:55;3.70;;;3.22;;
74344;SDS011;62776;50.518;6.732;2023-04-05T08:42:46;4.25;;;3.83;;
74344;SDS011;62776;50.518;6.732;2023-04-05T08:45:43;6.15;;;3.35;;
74344;SDS011;62776;50.518;6.732;2023-04-05T08:48:39;4.13;;;3.72;;
74344;SDS011;62776;50.518;6.732;2023-04-05T08:51:26;4.82;;;3.22;;
74344;SDS011;62776;50.518;6.732;2023-04-05T08:54:12;4.93;;;3.85;;
74344;SDS011;62776;50.518;6.732;2023-04-05T08:57:06;4.00;;;3.63;;
74344;SDS011;62776;50.518;6.732;2023-04-05T08:59:52;4.53;;;3.15;;
74344;SDS011;62776;50.518;6.732;2023-04-05T09:02:42;4.30;;;3.17;;
74344;SDS011;62776;50.518;6.732;2023-04-05T09:05:45;3.90;;;3.50;;
74344;SDS011;62776;50.518;6.732;2023-04-05T09:08:40;4.22;;;3.40;;
74344;SDS011;62776;50.518;6.732;2023-04-05T09:11:26;6.18;;;4.28;;
74344;SDS011;62776;50.518;6.732;2023-04-05T09:14:13;4.45;;;3.50;;
74344;SDS011;62776;50.518;6.732;2023-04-05T09:17:01;4.22;;;3.80;;
74344;SDS011;62776;50.518;6.732;2023-04-05T09:19:48;5.75;;;4.15;;
74344;SDS011;62776;50.518;6.732;2023-04-05T09:22:44;6.18;;;3.33;;
74344;SDS011;62776;50.518;6.732;2023-04-05T09:25:38;3.65;;;3.28;;
74344;SDS011;62776;50.518;6.732;2023-04-05T09:28:38;4.47;;;3.90;;
74344;SDS011;62776;50.518;6.732;2023-04-05T09:31:33;3.90;;;3.40;;
74344;SDS011;62776;50.518;6.732;2023-04-05T09:34:26;3.80;;;3.50;;
74344;SDS011;62776;50.518;6.732;2023-04-05T09:37:17;5.45;;;4.07;;
74344;SDS011;62776;50.518;6.732;2023-04-05T09:40:05;4.10;;;3.60;;
74344;SDS011;62776;50.518;6.732;2023-04-05T09:42:54;4.00;;;3.60;;
74344;SDS011;62776;50.518;6.732;2023-04-05T09:45:44;3.38;;;3.08;;
74344;SDS011;62776;50.518;6.732;2023-04-05T09:48:48;13.95;;;4.18;;
74344;SDS011;62776;50.518;6.732;2023-04-05T09:51:37;3.83;;;3.35;;
74344;SDS011;62776;50.518;6.732;2023-04-05T09:54:23;3.97;;;3.53;;
74344;SDS011;62776;50.518;6.732;2023-04-05T09:57:10;4.30;;;4.00;;
74344;SDS011;62776;50.518;6.732;2023-04-05T09:59:56;4.22;;;3.83;;
74344;SDS011;62776;50.518;6.732;2023-04-05T10:02:57;3.85;;;3.45;;
74344;SDS011;62776;50.518;6.732;2023-04-05T10:05:45;3.97;;;3.58;;
74344;SDS011;62776;50.518;6.732;2023-04-05T10:08:45;3.65;;;3.33;;
74344;SDS011;62776;50.518;6.732;2023-04-05T10:11:33;3.92;;;3.60;;
74344;SDS011;62776;50.518;6.732;2023-04-05T10:14:27;5.45;;;3.55;;
74344;SDS011;62776;50.518;6.732;2023-04-05T10:17:16;3.70;;;3.25;;
74344;SDS011;62776;50.518;6.732;2023-04-05T10:20:33;4.18;;;3.75;;
74344;SDS011;62776;50.518;6.732;2023-04-05T10:23:26;4.10;;;3.70;;
74344;SDS011;62776;50.518;6.732;2023-04-05T10:26:24;3.80;;;3.50;;
74344;SDS011;62776;50.518;6.732;2023-04-05T10:29:37;4.45;;;3.92;;
74344;SDS011;62776;50.518;6.732;2023-04-05T10:35:55;4.15;;;3.30;;
74344;SDS011;62776;50.518;6.732;2023-04-05T10:42:20;6.53;;;3.72;;
74344;SDS011;62776;50.518;6.732;2023-04-05T10:45:26;4.93;;;4.10;;
74344;SDS011;62776;50.518;6.732;2023-04-05T10:51:24;6.07;;;4.15;;
74344;SDS011;62776;50.518;6.732;2023-04-05T10:54:12;5.10;;;4.60;;
74344;SDS011;62776;50.518;6.732;2023-04-05T10:57:04;4.75;;;4.35;;
74344;SDS011;62776;50.518;6.732;2023-04-05T10:59:57;4.68;;;4.07;;
74344;SDS011;62776;50.518;6.732;2023-04-05T11:02:48;4.57;;;4.18;;
74344;SDS011;62776;50.518;6.732;2023-04-05T11:05:40;4.28;;;3.83;;
74344;SDS011;62776;50.518;6.732;2023-04-05T11:08:29;8.02;;;4.95;;
74344;SDS011;62776;50.518;6.732;2023-04-05T11:11:18;4.90;;;4.20;;
74344;SDS011;62776;50.518;6.732;2023-04-05T11:14:21;5.20;;;4.00;;
74344;SDS011;62776;50.518;6.732;2023-04-05T11:17:29;4.18;;;3.83;;
74344;SDS011;62776;50.518;6.732;2023-04-05T11:20:16;4.75;;;4.13;;
74344;SDS011;62776;50.518;6.732;2023-04-05T11:23:02;5.05;;;4.00;;
74344;SDS011;62776;50.518;6.732;2023-04-05T11:25:53;5.85;;;3.80;;
74344;SDS011;62776;50.518;6.732;2023-04-05T11:28:44;3.95;;;3.65;;
74344;SDS011;62776;50.518;6.732;2023-04-05T11:31:33;5.15;;;4.25;;
74344;SDS011;62776;50.518;6.732;2023-04-05T11:34:22;4.78;;;4.28;;
74344;SDS011;62776;50.518;6.732;2023-04-05T11:37:08;3.85;;;3.55;;
74344;SDS011;62776;50.518;6.732;2023-04-05T11:40:22;6.07;;;4.22;;
74344;SDS011;62776;50.518;6.732;2023-04-05T11:43:14;4.20;;;3.88;;
74344;SDS011;62776;50.518;6.732;2023-04-05T11:46:01;4.28;;;3.85;;
74344;SDS011;62776;50.518;6.732;2023-04-05T11:48:49;4.88;;;4.30;;
74344;SDS011;62776;50.518;6.732;2023-04-05T11:51:35;5.15;;;4.65;;
74344;SDS011;62776;50.518;6.732;2023-04-05T11:57:19;3.97;;;3.67;;
74344;SDS011;62776;50.518;6.732;2023-04-05T12:00:06;4.57;;;4.10;;
74344;SDS011;62776;50.518;6.732;2023-04-05T12:02:56;3.92;;;3.58;;
74344;SDS011;62776;50.518;6.732;2023-04-05T12:08:45;4.30;;;4.00;;
74344;SDS011;62776;50.518;6.732;2023-04-05T12:11:40;5.30;;;4.07;;
74344;SDS011;62776;50.518;6.732;2023-04-05T12:14:31;5.10;;;4.60;;
74344;SDS011;62776;50.518;6.732;2023-04-05T12:17:17;5.47;;;3.60;;
74344;SDS011;62776;50.518;6.732;2023-04-05T12:20:04;4.45;;;4.05;;
74344;SDS011;62776;50.518;6.732;2023-04-05T12:22:52;4.63;;;4.20;;
74344;SDS011;62776;50.518;6.732;2023-04-05T12:25:40;6.90;;;4.22;;
74344;SDS011;62776;50.518;6.732;2023-04-05T12:31:39;5.43;;;4.68;;
74344;SDS011;62776;50.518;6.732;2023-04-05T12:34:29;5.30;;;4.68;;
74344;SDS011;62776;50.518;6.732;2023-04-05T12:37:16;4.82;;;4.32;;
74344;SDS011;62776;50.518;6.732;2023-04-05T12:40:09;4.70;;;4.13;;
74344;SDS011;62776;50.518;6.732;2023-04-05T12:43:02;4.68;;;3.90;;
74344;SDS011;62776;50.518;6.732;2023-04-05T12:45:54;4.95;;;4.43;;
74344;SDS011;62776;50.518;6.732;2023-04-05T12:48:51;5.75;;;4.30;;
74344;SDS011;62776;50.518;6.732;2023-04-05T12:51:46;5.75;;;4.63;;
74344;SDS011;62776;50.518;6.732;2023-04-05T12:54:33;6.18;;;4.63;;
74344;SDS011;62776;50.518;6.732;2023-04-05T12:57:33;5.22;;;4.72;;
74344;SDS011;62776;50.518;6.732;2023-04-05T13:00:20;5.45;;;4.78;;
74344;SDS011;62776;50.518;6.732;2023-04-05T13:03:17;4.47;;;4.07;;
74344;SDS011;62776;50.518;6.732;2023-04-05T13:06:05;5.63;;;5.03;;
74344;SDS011;62776;50.518;6.732;2023-04-05T13:08:52;5.15;;;4.40;;
74344;SDS011;62776;50.518;6.732;2023-04-05T13:11:41;6.65;;;5.32;;
74344;SDS011;62776;50.518;6.732;2023-04-05T13:14:38;5.93;;;4.40;;
74344;SDS011;62776;50.518;6.732;2023-04-05T13:17:24;5.82;;;5.20;;
74344;SDS011;62776;50.518;6.732;2023-04-05T13:20:14;5.13;;;4.15;;
74344;SDS011;62776;50.518;6.732;2023-04-05T13:23:01;5.75;;;4.95;;
74344;SDS011;62776;50.518;6.732;2023-04-05T13:26:01;5.93;;;5.10;;
74344;SDS011;62776;50.518;6.732;2023-04-05T13:28:47;6.63;;;4.70;;
74344;SDS011;62776;50.518;6.732;2023-04-05T13:31:35;5.85;;;5.20;;
74344;SDS011;62776;50.518;6.732;2023-04-05T13:34:30;4.63;;;4.22;;
74344;SDS011;62776;50.518;6.732;2023-04-05T13:37:18;5.18;;;4.68;;
74344;SDS011;62776;50.518;6.732;2023-04-05T13:40:05;5.00;;;4.55;;
74344;SDS011;62776;50.518;6.732;2023-04-05T13:42:52;10.43;;;5.40;;
74344;SDS011;62776;50.518;6.732;2023-04-05T13:45:38;5.38;;;4.88;;
74344;SDS011;62776;50.518;6.732;2023-04-05T13:48:27;6.38;;;5.75;;
74344;SDS011;62776;50.518;6.732;2023-04-05T13:51:13;5.88;;;5.28;;
74344;SDS011;62776;50.518;6.732;2023-04-05T13:54:00;5.82;;;5.22;;
74344;SDS011;62776;50.518;6.732;2023-04-05T13:56:46;5.10;;;4.63;;
74344;SDS011;62776;50.518;6.732;2023-04-05T13:59:32;7.65;;;4.75;;
74344;SDS011;62776;50.518;6.732;2023-04-05T14:02:18;5.13;;;4.60;;
74344;SDS011;62776;50.518;6.732;2023-04-05T14:05:14;5.95;;;5.15;;
74344;SDS011;62776;50.518;6.732;2023-04-05T14:08:03;7.30;;;6.47;;
74344;SDS011;62776;50.518;6.732;2023-04-05T14:10:49;5.85;;;5.35;;
74344;SDS011;62776;50.518;6.732;2023-04-05T14:13:36;5.80;;;4.45;;
74344;SDS011;62776;50.518;6.732;2023-04-05T14:16:23;6.18;;;5.53;;
74344;SDS011;62776;50.518;6.732;2023-04-05T14:19:10;5.38;;;4.95;;
74344;SDS011;62776;50.518;6.732;2023-04-05T14:21:56;5.63;;;5.13;;
74344;SDS011;62776;50.518;6.732;2023-04-05T14:24:42;5.20;;;4.70;;
74344;SDS011;62776;50.518;6.732;2023-04-05T14:27:29;7.35;;;5.00;;
74344;SDS011;62776;50.518;6.732;2023-04-05T14:30:18;4.75;;;4.35;;
74344;SDS011;62776;50.518;6.732;2023-04-05T14:33:07;6.00;;;5.35;;
74344;SDS011;62776;50.518;6.732;2023-04-05T14:36:02;7.50;;;5.25;;
74344;SDS011;62776;50.518;6.732;2023-04-05T14:38:52;6.95;;;5.35;;
74344;SDS011;62776;50.518;6.732;2023-04-05T14:41:44;6.10;;;5.25;;
74344;SDS011;62776;50.518;6.732;2023-04-05T14:44:37;5.65;;;5.13;;
74344;SDS011;62776;50.518;6.732;2023-04-05T14:47:24;6.35;;;5.75;;
74344;SDS011;62776;50.518;6.732;2023-04-05T14:50:11;7.28;;;5.22;;
74344;SDS011;62776;50.518;6.732;2023-04-05T14:52:58;5.38;;;4.88;;
74344;SDS011;62776;50.518;6.732;2023-04-05T14:55:46;5.80;;;5.28;;
74344;SDS011;62776;50.518;6.732;2023-04-05T14:58:32;6.20;;;5.60;;
74344;SDS011;62776;50.518;6.732;2023-04-05T15:01:19;5.43;;;4.85;;
74344;SDS011;62776;50.518;6.732;2023-04-05T15:04:06;6.10;;;5.50;;
74344;SDS011;62776;50.518;6.732;2023-04-05T15:06:54;6.43;;;5.82;;
74344;SDS011;62776;50.518;6.732;2023-04-05T15:09:40;7.20;;;5.45;;
74344;SDS011;62776;50.518;6.732;2023-04-05T15:15:20;7.25;;;5.28;;
74344;SDS011;62776;50.518;6.732;2023-04-05T15:18:07;6.47;;;5.65;;
74344;SDS011;62776;50.518;6.732;2023-04-05T15:20:53;6.30;;;5.70;;
74344;SDS011;62776;50.518;6.732;2023-04-05T15:23:46;7.38;;;6.38;;
74344;SDS011;62776;50.518;6.732;2023-04-05T15:26:32;7.38;;;5.80;;
74344;SDS011;62776;50.518;6.732;2023-04-05T15:29:19;7.28;;;6.40;;
74344;SDS011;62776;50.518;6.732;2023-04-05T15:32:10;6.40;;;5.80;;
74344;SDS011;62776;50.518;6.732;2023-04-05T15:34:56;6.85;;;6.13;;
74344;SDS011;62776;50.518;6.732;2023-04-05T15:37:43;7.05;;;6.43;;
74344;SDS011;62776;50.518;6.732;2023-04-05T15:40:30;8.38;;;6.15;;
74344;SDS011;62776;50.518;6.732;2023-04-05T15:43:16;8.90;;;6.43;;
74344;SDS011;62776;50.518;6.732;2023-04-05T15:46:08;6.60;;;5.85;;
74344;SDS011;62776;50.518;6.732;2023-04-05T15:48:56;7.32;;;5.75;;
74344;SDS011;62776;50.518;6.732;2023-04-05T15:51:43;8.02;;;6.57;;
74344;SDS011;62776;50.518;6.732;2023-04-05T15:54:30;6.90;;;6.30;;
74344;SDS011;62776;50.518;6.732;2023-04-05T15:57:16;6.93;;;5.82;;
74344;SDS011;62776;50.518;6.732;2023-04-05T16:00:05;8.38;;;7.00;;
74344;SDS011;62776;50.518;6.732;2023-04-05T16:02:53;6.60;;;6.00;;
74344;SDS011;62776;50.518;6.732;2023-04-05T16:05:42;7.88;;;6.05;;
74344;SDS011;62776;50.518;6.732;2023-04-05T16:08:28;10.38;;;6.43;;
74344;SDS011;62776;50.518;6.732;2023-04-05T16:11:15;6.70;;;6.10;;
74344;SDS011;62776;50.518;6.732;2023-04-05T16:14:01;12.88;;;6.78;;
74344;SDS011;62776;50.518;6.732;2023-04-05T16:16:57;7.40;;;6.45;;
74344;SDS011;62776;50.518;6.732;2023-04-05T16:19:45;6.68;;;5.88;;
74344;SDS011;62776;50.518;6.732;2023-04-05T16:22:32;8.30;;;6.07;;
74344;SDS011;62776;50.518;6.732;2023-04-05T16:25:18;7.18;;;6.30;;
74344;SDS011;62776;50.518;6.732;2023-04-05T16:28:11;6.55;;;5.93;;
74344;SDS011;62776;50.518;6.732;2023-04-05T16:30:58;6.50;;;5.85;;
74344;SDS011;62776;50.518;6.732;2023-04-05T16:33:46;6.97;;;6.22;;
74344;SDS011;62776;50.518;6.732;2023-04-05T16:36:33;6.72;;;6.07;;
74344;SDS011;62776;50.518;6.732;2023-04-05T16:39:20;7.15;;;6.30;;
74344;SDS011;62776;50.518;6.732;2023-04-05T16:42:06;8.48;;;6.10;;
74344;SDS011;62776;50.518;6.732;2023-04-05T16:44:52;8.25;;;6.43;;
74344;SDS011;62776;50.518;6.732;2023-04-05T16:47:41;6.82;;;6.13;;
74344;SDS011;62776;50.518;6.732;2023-04-05T16:50:28;7.88;;;6.63;;
74344;SDS011;62776;50.518;6.732;2023-04-05T16:53:15;6.85;;;5.25;;
74344;SDS011;62776;50.518;6.732;2023-04-05T16:56:01;8.45;;;5.70;;
74344;SDS011;62776;50.518;6.732;2023-04-05T16:58:49;6.85;;;6.15;;
74344;SDS011;62776;50.518;6.732;2023-04-05T17:01:37;8.57;;;6.82;;
74344;SDS011;62776;50.518;6.732;2023-04-05T17:04:24;7.50;;;6.45;;
74344;SDS011;62776;50.518;6.732;2023-04-05T17:07:10;8.35;;;6.20;;
74344;SDS011;62776;50.518;6.732;2023-04-05T17:09:56;8.45;;;6.07;;
74344;SDS011;62776;50.518;6.732;2023-04-05T17:12:44;6.53;;;5.93;;
74344;SDS011;62776;50.518;6.732;2023-04-05T17:15:31;6.82;;;6.13;;
74344;SDS011;62776;50.518;6.732;2023-04-05T17:18:20;8.35;;;6.10;;
74344;SDS011;62776;50.518;6.732;2023-04-05T17:21:07;7.10;;;6.43;;
74344;SDS011;62776;50.518;6.732;2023-04-05T17:24:00;6.18;;;5.25;;
74344;SDS011;62776;50.518;6.732;2023-04-05T17:26:49;11.32;;;6.20;;
74344;SDS011;62776;50.518;6.732;2023-04-05T17:29:35;5.55;;;5.05;;
74344;SDS011;62776;50.518;6.732;2023-04-05T17:32:22;7.15;;;5.40;;
74344;SDS011;62776;50.518;6.732;2023-04-05T17:35:14;9.32;;;5.70;;